Time;durP1;ratioP1;P1;durP2;ratioP2;P2;SDS_P1;SDS_P2;PMS_P1;PMS_P2;Temp;Humidity;BMP_temperature;BMP_pressure;BME280_temperature;BME280_humidity;BME280_pressure;Samples;Min_cycle;Max_cycle;Signal;HPM_P1;HPM_P2
2020/12/09 00:01:27;;;;;;;11.95;7.70;;;15.00;63.40;;;;;;5009703;28;20057;-60
2020/12/09 00:03:52;;;;;;;11.38;7.55;;;15.10;63.50;;;;;;5006633;28;20034;-59
2020/12/09 00:06:18;;;;;;;11.85;7.68;;;15.10;63.30;;;;;;5012076;28;20056;-60
2020/12/09 00:08:43;;;;;;;13.07;8.30;;;15.00;63.30;;;;;;5010294;28;20454;-60
2020/12/09 00:11:09;;;;;;;13.00;8.32;;;15.00;63.20;;;;;;5011387;28;20388;-61
2020/12/09 00:13:35;;;;;;;12.27;7.72;;;15.00;63.20;;;;;;5010522;28;20113;-59
2020/12/09 00:16:01;;;;;;;15.32;8.77;;;15.00;63.30;;;;;;5008923;28;20030;-60
2020/12/09 00:18:27;;;;;;;11.65;7.90;;;15.00;63.20;;;;;;5011230;28;20038;-59
2020/12/09 00:20:52;;;;;;;12.23;7.75;;;15.00;63.30;;;;;;5011478;28;20056;-60
2020/12/09 00:23:18;;;;;;;9.98;6.80;;;14.90;63.20;;;;;;5011183;28;20022;-60
2020/12/09 00:25:43;;;;;;;12.10;7.97;;;15.00;63.30;;;;;;5010930;28;20026;-60
2020/12/09 00:28:09;;;;;;;10.98;7.30;;;14.90;63.20;;;;;;5009018;28;20042;-61
2020/12/09 00:30:35;;;;;;;16.73;8.15;;;14.90;63.20;;;;;;5009176;28;20026;-60
2020/12/09 00:33:01;;;;;;;11.82;8.05;;;14.90;63.20;;;;;;5010701;28;20044;-61
2020/12/09 00:35:26;;;;;;;13.30;8.05;;;14.90;63.20;;;;;;5010875;28;20502;-60
2020/12/09 00:37:52;;;;;;;11.68;7.68;;;14.90;63.30;;;;;;5010784;28;20049;-60
2020/12/09 00:40:17;;;;;;;11.77;8.30;;;14.90;63.40;;;;;;5010635;28;20036;-60
2020/12/09 00:42:43;;;;;;;11.10;7.32;;;14.90;63.40;;;;;;5009173;28;20037;-58
2020/12/09 00:45:08;;;;;;;13.65;7.90;;;14.90;63.30;;;;;;5003975;28;20026;-60
2020/12/09 00:47:34;;;;;;;12.30;7.85;;;14.90;63.10;;;;;;5009514;28;20034;-60
2020/12/09 00:52:38;;;;;;;11.07;6.93;;;14.90;63.10;;;;;;5010793;28;20105;-61
2020/12/09 00:55:04;;;;;;;11.93;8.05;;;14.90;63.10;;;;;;5010209;28;20037;-61
2020/12/09 00:57:29;;;;;;;12.13;7.88;;;14.90;63.00;;;;;;5010413;28;20038;-60
2020/12/09 00:59:55;;;;;;;11.13;7.88;;;14.80;62.90;;;;;;5010486;28;20038;-60
2020/12/09 01:02:21;;;;;;;10.90;7.63;;;14.90;62.90;;;;;;5010835;28;20034;-60
2020/12/09 01:04:52;;;;;;;13.45;7.10;;;14.80;62.90;;;;;;5009897;28;20049;-60
2020/12/09 01:07:19;;;;;;;11.20;7.57;;;14.80;62.80;;;;;;5010717;28;20045;-60
2020/12/09 01:09:45;;;;;;;12.63;7.63;;;14.80;62.90;;;;;;5009094;28;20022;-60
2020/12/09 01:12:11;;;;;;;11.82;7.53;;;14.80;62.90;;;;;;5010471;28;20036;-59
2020/12/09 01:14:36;;;;;;;10.45;7.13;;;14.80;62.80;;;;;;5010151;28;20386;-60
2020/12/09 01:17:02;;;;;;;10.65;7.13;;;14.80;62.90;;;;;;5008061;28;20029;-61
2020/12/09 01:19:27;;;;;;;12.20;7.30;;;14.80;62.90;;;;;;5010521;28;20109;-60
2020/12/09 01:21:53;;;;;;;9.40;6.55;;;14.90;62.90;;;;;;5011952;28;20108;-61
2020/12/09 01:24:19;;;;;;;9.68;6.80;;;14.70;62.80;;;;;;5010130;28;20073;-61
2020/12/09 01:26:45;;;;;;;9.88;6.80;;;14.70;62.80;;;;;;5009500;28;20772;-61
2020/12/09 01:29:11;;;;;;;11.82;7.00;;;14.70;62.80;;;;;;5009706;28;20022;-60
2020/12/09 01:31:36;;;;;;;11.02;6.75;;;14.70;62.90;;;;;;5010031;28;20161;-61
2020/12/09 01:34:05;;;;;;;11.77;7.30;;;14.70;62.80;;;;;;5008974;28;20068;-61
2020/12/09 01:36:30;;;;;;;10.48;6.82;;;14.70;62.80;;;;;;5003969;28;20026;-60
2020/12/09 01:38:56;;;;;;;11.02;6.97;;;14.70;62.70;;;;;;5007848;28;20581;-61
2020/12/09 01:41:22;;;;;;;11.75;7.32;;;14.70;62.80;;;;;;5009844;28;20036;-61
2020/12/09 01:43:49;;;;;;;12.65;7.05;;;14.70;62.80;;;;;;5007783;28;20726;-61
2020/12/09 01:46:16;;;;;;;10.93;7.07;;;14.70;62.60;;;;;;5009038;28;20037;-61
2020/12/09 01:48:43;;;;;;;10.82;6.90;;;14.70;62.50;;;;;;5009713;28;20029;-61
2020/12/09 01:51:09;;;;;;;13.18;6.95;;;14.70;62.50;;;;;;5009728;28;20026;-61
2020/12/09 01:53:35;;;;;;;10.93;6.78;;;14.70;62.60;;;;;;5009308;28;20084;-61
2020/12/09 01:56:01;;;;;;;10.63;6.85;;;14.70;62.70;;;;;;5009233;28;20033;-61
2020/12/09 01:58:26;;;;;;;11.02;7.63;;;14.70;62.70;;;;;;5009477;28;20034;-61
2020/12/09 02:00:54;;;;;;;9.13;6.53;;;14.70;62.70;;;;;;5011059;28;20087;-61
2020/12/09 02:03:19;;;;;;;10.70;6.78;;;14.70;62.70;;;;;;5012153;28;20079;-61
2020/12/09 02:05:45;;;;;;;11.70;6.68;;;14.70;62.70;;;;;;5013560;28;20422;-61
2020/12/09 02:08:11;;;;;;;12.18;7.05;;;14.70;62.70;;;;;;5012576;28;20053;-61
2020/12/09 02:10:36;;;;;;;10.68;6.65;;;14.70;62.80;;;;;;5013203;28;20387;-61
2020/12/09 02:13:02;;;;;;;9.23;6.20;;;14.70;62.90;;;;;;5013346;28;20030;-61
2020/12/09 02:15:27;;;;;;;11.60;6.65;;;14.70;62.80;;;;;;5013191;28;20034;-61
2020/12/09 02:17:53;;;;;;;9.80;6.05;;;14.60;62.80;;;;;;5012252;28;20118;-61
2020/12/09 02:20:18;;;;;;;9.57;6.47;;;14.60;62.80;;;;;;5013276;28;20034;-61
2020/12/09 02:22:55;;;;;;;10.32;7.20;;;14.60;62.80;;;;;;5013155;28;20037;-59
2020/12/09 02:25:21;;;;;;;10.23;6.75;;;14.60;62.70;;;;;;5012969;28;20394;-61
2020/12/09 02:27:47;;;;;;;8.85;6.07;;;14.60;62.80;;;;;;5013100;28;20101;-61
2020/12/09 02:30:13;;;;;;;10.43;6.55;;;14.60;62.70;;;;;;5012597;28;20018;-61
2020/12/09 02:32:39;;;;;;;9.27;6.45;;;14.60;62.60;;;;;;5011000;28;20029;-60
2020/12/09 02:35:05;;;;;;;10.68;6.35;;;14.60;62.60;;;;;;5011970;28;20539;-60
2020/12/09 02:37:31;;;;;;;9.43;6.75;;;14.60;62.60;;;;;;5011794;28;20053;-61
2020/12/09 02:39:57;;;;;;;9.52;6.40;;;14.60;62.60;;;;;;5011555;28;20684;-61
2020/12/09 02:42:23;;;;;;;10.02;6.30;;;14.60;62.60;;;;;;5011493;28;20034;-61
2020/12/09 02:44:48;;;;;;;9.82;6.55;;;14.50;62.40;;;;;;5011891;28;20557;-61
2020/12/09 02:47:14;;;;;;;10.57;6.18;;;14.60;62.70;;;;;;5012902;28;20069;-60
2020/12/09 02:49:39;;;;;;;10.15;6.15;;;14.60;62.60;;;;;;5012696;28;20041;-61
2020/12/09 02:52:05;;;;;;;8.90;6.15;;;14.70;62.50;;;;;;5012953;28;20030;-61
2020/12/09 02:54:30;;;;;;;10.60;6.68;;;14.70;62.40;;;;;;5012857;28;20026;-60
2020/12/09 02:56:56;;;;;;;9.57;6.18;;;14.70;62.30;;;;;;5012571;28;20034;-61
2020/12/09 02:59:21;;;;;;;10.63;6.30;;;14.70;62.10;;;;;;5011201;28;20368;-61
2020/12/09 03:01:47;;;;;;;8.75;6.05;;;14.70;62.20;;;;;;5013115;28;20097;-61
2020/12/09 03:04:12;;;;;;;9.43;6.32;;;14.70;62.30;;;;;;5012980;28;20028;-62
2020/12/09 03:06:38;;;;;;;9.70;6.07;;;14.70;62.30;;;;;;5011662;28;20038;-59
2020/12/09 03:09:04;;;;;;;8.82;5.78;;;14.70;62.30;;;;;;5011874;28;20026;-61
2020/12/09 03:11:30;;;;;;;8.75;5.75;;;14.70;62.30;;;;;;5011442;28;20167;-61
2020/12/09 03:13:56;;;;;;;8.85;6.03;;;14.60;62.20;;;;;;5011944;28;20046;-61
2020/12/09 03:16:22;;;;;;;9.07;6.15;;;14.60;62.10;;;;;;5011573;28;20034;-60
2020/12/09 03:18:47;;;;;;;10.73;5.95;;;14.60;62.00;;;;;;5010618;28;20092;-60
2020/12/09 03:21:13;;;;;;;9.95;6.40;;;14.60;62.00;;;;;;5010415;28;20034;-60
2020/12/09 03:23:38;;;;;;;9.43;6.05;;;14.60;62.00;;;;;;5011747;28;20445;-61
2020/12/09 03:26:04;;;;;;;11.05;6.50;;;14.60;62.00;;;;;;5009910;28;20025;-62
2020/12/09 03:28:30;;;;;;;9.70;6.53;;;14.50;61.90;;;;;;5011117;28;20030;-60
2020/12/09 03:30:56;;;;;;;10.25;5.97;;;14.60;61.90;;;;;;5009177;28;20095;-61
2020/12/09 03:33:22;;;;;;;9.13;6.40;;;14.50;61.80;;;;;;5010205;28;20487;-61
2020/12/09 03:35:47;;;;;;;9.38;6.60;;;14.50;62.40;;;;;;5011001;28;20021;-60
2020/12/09 03:38:13;;;;;;;9.63;6.15;;;14.50;61.90;;;;;;5011115;28;20045;-61
2020/12/09 03:40:38;;;;;;;9.65;6.40;;;14.50;61.80;;;;;;5011305;28;20554;-61
2020/12/09 03:43:04;;;;;;;8.48;5.60;;;14.50;61.90;;;;;;5010515;28;20022;-60
2020/12/09 03:45:29;;;;;;;9.27;6.32;;;14.50;61.90;;;;;;5011246;28;20131;-61
2020/12/09 03:47:55;;;;;;;9.65;6.28;;;14.50;61.90;;;;;;5010975;28;20483;-61
2020/12/09 03:50:20;;;;;;;9.25;5.97;;;14.50;62.00;;;;;;5010656;28;20037;-61
2020/12/09 03:52:46;;;;;;;9.40;6.30;;;14.50;62.00;;;;;;5010219;28;20030;-61
2020/12/09 03:55:11;;;;;;;9.05;5.97;;;14.40;61.90;;;;;;5008686;28;20053;-60
2020/12/09 03:57:37;;;;;;;9.45;6.05;;;14.50;62.00;;;;;;5010792;28;20124;-61
2020/12/09 04:00:03;;;;;;;7.97;5.45;;;14.50;62.00;;;;;;5005565;28;20117;-61
2020/12/09 04:02:29;;;;;;;8.32;6.00;;;14.50;61.90;;;;;;5003245;28;20045;-60
2020/12/09 04:04:54;;;;;;;8.45;5.90;;;14.40;61.90;;;;;;5003619;28;20568;-61
2020/12/09 04:07:20;;;;;;;9.65;6.28;;;14.40;61.90;;;;;;5005082;28;20513;-61
2020/12/09 04:09:45;;;;;;;8.65;6.03;;;14.40;61.90;;;;;;5012090;28;20018;-61
2020/12/09 04:12:11;;;;;;;9.57;6.05;;;14.40;61.90;;;;;;5011527;28;20024;-61
2020/12/09 04:14:36;;;;;;;9.13;6.20;;;14.40;61.90;;;;;;5011385;28;20435;-60
2020/12/09 04:17:02;;;;;;;8.02;5.88;;;14.40;61.90;;;;;;5009834;28;20030;-61
2020/12/09 04:19:27;;;;;;;10.82;5.85;;;14.30;61.80;;;;;;5011564;28;20037;-61
2020/12/09 04:21:53;;;;;;;9.68;6.35;;;14.40;61.80;;;;;;5011197;28;20022;-61
2020/12/09 04:24:19;;;;;;;8.82;5.88;;;14.40;61.80;;;;;;5010965;28;20025;-61
2020/12/09 04:26:44;;;;;;;9.32;6.10;;;14.30;61.80;;;;;;5011063;28;20110;-61
2020/12/09 04:29:10;;;;;;;10.55;6.18;;;14.40;61.80;;;;;;5009979;28;20026;-61
2020/12/09 04:31:35;;;;;;;9.70;6.05;;;14.30;61.80;;;;;;5011225;28;20029;-61
2020/12/09 04:34:01;;;;;;;9.05;5.93;;;14.40;61.80;;;;;;5011018;28;20083;-61
2020/12/09 04:36:28;;;;;;;8.60;6.05;;;14.40;61.80;;;;;;5011262;28;20041;-61
2020/12/09 04:38:54;;;;;;;8.48;6.13;;;14.30;61.70;;;;;;5011080;28;20029;-61
2020/12/09 04:41:20;;;;;;;10.38;6.72;;;14.40;61.80;;;;;;5009906;28;20040;-61
2020/12/09 04:43:45;;;;;;;8.82;5.95;;;14.30;61.70;;;;;;5010886;28;20030;-61
2020/12/09 04:46:11;;;;;;;8.80;6.10;;;14.30;61.70;;;;;;5010822;28;20442;-60
2020/12/09 04:48:41;;;;;;;9.25;6.18;;;14.30;61.60;;;;;;5009585;28;20050;-61
2020/12/09 04:51:40;;;;;;;8.38;5.43;;;14.30;61.60;;;;;;5011099;28;20022;-60
2020/12/09 04:54:14;;;;;;;9.90;6.72;;;14.30;61.50;;;;;;5001312;28;20034;-61
2020/12/09 04:56:55;;;;;;;9.23;6.38;;;14.30;61.50;;;;;;5009280;28;20038;-61
2020/12/09 04:59:24;;;;;;;;;;;14.30;61.40;;;;;;4995400;28;20422;-61
2020/12/09 05:02:07;;;;;;;9.98;5.85;;;14.30;61.40;;;;;;5009751;28;20444;-61
2020/12/09 05:04:34;;;;;;;9.25;6.18;;;14.30;61.40;;;;;;5009295;28;20535;-62
2020/12/09 05:07:08;;;;;;;9.15;6.28;;;14.30;61.40;;;;;;5011082;28;20064;-61
2020/12/09 05:09:44;;;;;;;9.93;6.30;;;14.30;61.40;;;;;;5009745;28;20033;-61
2020/12/09 05:12:15;;;;;;;10.50;6.53;;;14.30;61.90;;;;;;5010820;28;20025;-61
2020/12/09 05:14:48;;;;;;;9.75;6.00;;;14.30;61.30;;;;;;5009195;28;20105;-61
2020/12/09 05:17:19;;;;;;;11.60;6.75;;;14.30;61.30;;;;;;4999045;28;20033;-59
2020/12/09 05:19:46;;;;;;;9.85;5.85;;;14.30;61.30;;;;;;5001801;28;20026;-61
2020/12/09 05:22:21;;;;;;;8.57;5.45;;;14.30;61.50;;;;;;5013427;28;20672;-60
2020/12/09 05:24:46;;;;;;;10.65;5.85;;;14.30;61.80;;;;;;5022523;28;20036;-61
2020/12/09 05:27:13;;;;;;;9.23;5.72;;;14.40;61.70;;;;;;5022299;28;20030;-61
2020/12/09 05:29:46;;;;;;;10.70;5.95;;;14.40;61.40;;;;;;5010580;28;20112;-61
2020/12/09 05:32:12;;;;;;;9.85;5.90;;;14.40;61.20;;;;;;5001077;28;20022;-61
2020/12/09 05:34:38;;;;;;;9.35;5.68;;;14.50;61.10;;;;;;5002773;28;20029;-60
2020/12/09 05:37:06;;;;;;;8.77;5.97;;;14.40;60.90;;;;;;5008604;28;20101;-61
2020/12/09 05:39:32;;;;;;;11.40;6.38;;;14.40;60.90;;;;;;5007549;28;20488;-62
2020/12/09 05:42:12;;;;;;;10.57;5.97;;;14.50;61.00;;;;;;5005813;28;20104;-61
2020/12/09 05:44:41;;;;;;;13.70;6.37;;;14.40;61.00;;;;;;5007754;28;20112;-60
2020/12/09 05:47:06;;;;;;;10.68;6.18;;;14.50;61.30;;;;;;5003018;28;20281;-61
2020/12/09 05:49:37;;;;;;;11.07;6.65;;;14.40;61.70;;;;;;5007763;28;20036;-61
2020/12/09 05:52:08;;;;;;;10.38;5.70;;;14.50;61.70;;;;;;5007103;28;20020;-61
2020/12/09 05:54:35;;;;;;;10.02;6.28;;;14.50;61.80;;;;;;5005268;28;20033;-60
2020/12/09 05:57:07;;;;;;;10.20;6.05;;;14.60;61.80;;;;;;5006116;28;20498;-60
2020/12/09 05:59:43;;;;;;;10.05;5.43;;;14.60;61.70;;;;;;5007244;28;20439;-60
2020/12/09 06:02:22;;;;;;;13.27;5.70;;;14.60;61.60;;;;;;5006090;28;20470;-61
2020/12/09 06:04:47;;;;;;;13.68;5.85;;;14.70;61.60;;;;;;5003251;28;20068;-60
2020/12/09 06:07:14;;;;;;;13.10;6.25;;;14.70;61.50;;;;;;5005955;28;20070;-60
2020/12/09 06:09:40;;;;;;;10.57;5.70;;;14.70;61.50;;;;;;5007772;28;20225;-61
2020/12/09 06:12:06;;;;;;;14.38;5.32;;;14.80;61.60;;;;;;5004449;28;20495;-61
2020/12/09 06:14:33;;;;;;;25.52;8.15;;;14.80;61.60;;;;;;5006239;28;20502;-60
2020/12/09 06:16:59;;;;;;;29.92;8.57;;;14.80;61.70;;;;;;5005550;28;20026;-60
2020/12/09 06:19:25;;;;;;;19.75;7.30;;;14.80;61.60;;;;;;5009451;28;20040;-60
2020/12/09 06:21:57;;;;;;;17.33;6.40;;;14.80;61.50;;;;;;5014896;28;20034;-60
2020/12/09 06:27:45;;;;;;;28.08;14.85;;;14.90;61.70;;;;;;5002280;28;20052;-60
2020/12/09 06:30:11;;;;;;;29.38;19.50;;;14.90;62.10;;;;;;5007206;28;20030;-59
2020/12/09 06:32:47;;;;;;;15.30;9.18;;;15.00;62.20;;;;;;5000406;28;20088;-61
2020/12/09 06:35:16;;;;;;;17.65;8.88;;;15.00;62.10;;;;;;5000582;28;20030;-61
2020/12/09 06:37:42;;;;;;;16.48;7.63;;;15.00;61.90;;;;;;5000780;28;20050;-61
2020/12/09 06:40:12;;;;;;;17.00;7.80;;;15.00;61.70;;;;;;4995697;28;20049;-60
2020/12/09 06:42:38;;;;;;;18.13;7.82;;;15.10;61.60;;;;;;4998525;28;20530;-61
2020/12/09 06:45:07;;;;;;;16.33;8.73;;;15.20;61.50;;;;;;5003019;28;20048;-60
2020/12/09 06:47:33;;;;;;;20.85;13.55;;;15.20;61.40;;;;;;5007149;28;20573;-61
2020/12/09 06:50:00;;;;;;;20.95;13.75;;;15.30;61.40;;;;;;5006158;28;20125;-61
2020/12/09 06:52:28;;;;;;;31.00;21.33;;;15.40;61.30;;;;;;5005277;28;20022;-60
2020/12/09 06:54:54;;;;;;;47.03;31.13;;;15.50;61.30;;;;;;5004225;28;20025;-61
2020/12/09 06:57:38;;;;;;;91.72;56.00;;;15.50;61.60;;;;;;5008963;28;20022;-61
2020/12/09 07:00:22;;;;;;;96.20;61.10;;;15.60;61.20;;;;;;5014163;28;20477;-60
2020/12/09 07:02:50;;;;;;;96.30;58.30;;;15.60;60.80;;;;;;5005160;28;20030;-60
2020/12/09 07:05:25;;;;;;;83.95;51.92;;;15.60;60.80;;;;;;5006627;28;20064;-60
2020/12/09 07:07:51;;;;;;;69.00;44.65;;;15.60;60.80;;;;;;5004840;28;20026;-61
2020/12/09 07:10:22;;;;;;;58.80;39.55;;;15.60;60.80;;;;;;5004734;28;20029;-61
2020/12/09 07:13:00;;;;;;;50.93;34.20;;;15.60;60.80;;;;;;5003125;28;20487;-61
2020/12/09 07:15:27;;;;;;;38.33;26.35;;;15.60;60.80;;;;;;4999171;28;20033;-61
2020/12/09 07:17:53;;;;;;;33.40;21.77;;;15.60;59.90;;;;;;5005565;28;20113;-60
2020/12/09 07:20:19;;;;;;;35.15;22.48;;;15.50;59.00;;;;;;5006607;28;20034;-59
2020/12/09 07:22:45;;;;;;;33.13;21.55;;;15.50;58.80;;;;;;5005169;28;20041;-60
2020/12/09 07:25:10;;;;;;;45.22;21.67;;;15.50;59.40;;;;;;5004446;28;20034;-61
2020/12/09 07:27:37;;;;;;;31.15;19.77;;;15.50;60.10;;;;;;5004989;28;20022;-62
2020/12/09 07:30:12;;;;;;;28.65;17.42;;;15.50;60.60;;;;;;5006624;28;20117;-61
2020/12/09 07:32:37;;;;;;;32.33;18.88;;;15.50;60.50;;;;;;5000153;28;20026;-61
2020/12/09 07:35:07;;;;;;;29.15;16.10;;;15.50;60.60;;;;;;5005302;28;20030;-61
2020/12/09 07:37:36;;;;;;;33.53;17.55;;;15.50;60.90;;;;;;5004972;28;20034;-60
2020/12/09 07:40:29;;;;;;;27.67;16.38;;;15.50;61.00;;;;;;4993219;28;20137;-61
2020/12/09 07:43:07;;;;;;;25.77;15.35;;;15.50;61.10;;;;;;4991414;28;20026;-61
2020/12/09 07:45:38;;;;;;;27.30;13.77;;;15.50;60.90;;;;;;4992582;28;20028;-61
2020/12/09 07:48:05;;;;;;;23.30;14.30;;;15.50;60.90;;;;;;4993032;28;20487;-61
2020/12/09 07:50:31;;;;;;;21.48;13.50;;;15.50;61.00;;;;;;4992981;28;20049;-61
2020/12/09 07:52:56;;;;;;;23.63;13.65;;;15.50;61.00;;;;;;4992643;28;20515;-61
2020/12/09 07:55:22;;;;;;;20.80;12.18;;;15.50;61.00;;;;;;4992870;28;20034;-61
2020/12/09 07:57:48;;;;;;;22.02;12.63;;;15.50;61.10;;;;;;4991970;28;20128;-61
2020/12/09 08:00:16;;;;;;;20.45;12.05;;;15.40;61.10;;;;;;4991250;28;20125;-61
2020/12/09 08:02:46;;;;;;;17.02;11.20;;;15.40;61.10;;;;;;4992271;28;20072;-60
2020/12/09 08:05:15;;;;;;;17.75;11.07;;;15.40;61.20;;;;;;4992478;28;20026;-61
2020/12/09 08:08:14;;;;;;;15.68;10.48;;;15.40;61.20;;;;;;4992354;28;20460;-61
2020/12/09 08:10:43;;;;;;;18.10;11.10;;;15.30;61.20;;;;;;4980521;28;20093;-61
2020/12/09 08:13:08;;;;;;;15.98;10.40;;;15.30;61.20;;;;;;4992054;28;20135;-61
2020/12/09 08:15:37;;;;;;;15.10;9.98;;;15.30;61.30;;;;;;4992486;28;20540;-61
2020/12/09 08:18:03;;;;;;;15.65;9.90;;;15.40;61.30;;;;;;4992164;28;20045;-61
2020/12/09 08:20:29;;;;;;;14.98;9.88;;;15.30;61.20;;;;;;4990820;28;20034;-61
2020/12/09 08:23:00;;;;;;;14.13;9.13;;;15.30;61.30;;;;;;4990415;28;20035;-61
2020/12/09 08:25:28;;;;;;;15.77;9.88;;;15.30;61.40;;;;;;4992170;28;20390;-61
2020/12/09 08:27:56;;;;;;;13.02;8.77;;;15.20;61.40;;;;;;4991901;28;20483;-61
2020/12/09 08:30:24;;;;;;;15.32;9.73;;;15.20;61.60;;;;;;4991936;28;20077;-60
2020/12/09 08:32:57;;;;;;;13.90;8.88;;;15.20;61.70;;;;;;4990378;28;20022;-61
2020/12/09 08:35:24;;;;;;;15.10;8.75;;;15.20;61.70;;;;;;4991843;28;20072;-61
2020/12/09 08:37:49;;;;;;;15.07;8.90;;;15.20;61.70;;;;;;4991715;28;20022;-61
2020/12/09 08:40:15;;;;;;;15.55;9.70;;;15.20;61.70;;;;;;4991782;28;20549;-61
2020/12/09 08:42:52;;;;;;;14.80;8.90;;;15.20;61.70;;;;;;4991228;28;20499;-60
2020/12/09 08:45:17;;;;;;;14.60;8.93;;;15.20;61.80;;;;;;4991584;28;20502;-61
2020/12/09 08:47:43;;;;;;;13.23;8.10;;;15.10;61.70;;;;;;4991597;28;20027;-62
2020/12/09 08:50:08;;;;;;;13.20;8.50;;;15.10;61.70;;;;;;4990208;28;20030;-61
2020/12/09 08:52:34;;;;;;;14.23;8.13;;;15.10;61.60;;;;;;4991490;28;20030;-60
2020/12/09 08:54:59;;;;;;;12.38;8.05;;;15.10;61.60;;;;;;4990104;28;20065;-61
2020/12/09 08:57:25;;;;;;;12.23;7.80;;;15.10;61.60;;;;;;4991460;28;20101;-61
2020/12/09 08:59:50;;;;;;;11.98;7.65;;;15.10;61.50;;;;;;4991452;28;20435;-61
2020/12/09 09:02:16;;;;;;;11.68;7.45;;;15.10;61.50;;;;;;4990131;28;20101;-61
2020/12/09 09:04:41;;;;;;;11.13;7.15;;;15.00;61.40;;;;;;4989717;28;20187;-61
2020/12/09 09:07:07;;;;;;;11.70;7.50;;;15.00;61.30;;;;;;4991171;28;20045;-61
2020/12/09 09:09:32;;;;;;;12.38;8.05;;;15.00;61.20;;;;;;4990554;28;20486;-61
2020/12/09 09:11:58;;;;;;;12.20;8.00;;;15.00;61.10;;;;;;4991374;28;20269;-61
2020/12/09 09:14:24;;;;;;;12.13;7.53;;;15.00;61.20;;;;;;4990955;28;20043;-61
2020/12/09 09:16:49;;;;;;;11.73;7.60;;;15.00;61.20;;;;;;4991156;28;20026;-61
2020/12/09 09:19:15;;;;;;;12.32;8.07;;;15.00;61.10;;;;;;4991135;28;20058;-60
2020/12/09 09:21:41;;;;;;;11.13;7.97;;;15.00;61.20;;;;;;4991439;28;20030;-61
2020/12/09 09:24:06;;;;;;;11.95;7.40;;;15.00;61.10;;;;;;4991146;28;20547;-60
2020/12/09 09:26:33;;;;;;;10.25;7.55;;;15.00;61.10;;;;;;4991261;28;20037;-61
2020/12/09 09:28:59;;;;;;;12.35;8.30;;;15.00;61.10;;;;;;4991120;28;20110;-61
2020/12/09 09:31:24;;;;;;;11.32;7.80;;;15.00;61.00;;;;;;4989757;28;20165;-61
2020/12/09 09:33:50;;;;;;;10.88;7.68;;;15.00;61.00;;;;;;4990697;28;20038;-61
2020/12/09 09:36:15;;;;;;;12.07;8.13;;;15.00;61.00;;;;;;4991061;28;20133;-61
2020/12/09 09:38:41;;;;;;;11.85;7.50;;;15.00;61.00;;;;;;4990909;28;20022;-61
2020/12/09 09:41:06;;;;;;;11.27;7.25;;;15.00;60.90;;;;;;4989692;28;20036;-61
2020/12/09 09:43:32;;;;;;;11.10;7.28;;;15.00;60.70;;;;;;4990703;28;20400;-61
2020/12/09 09:45:59;;;;;;;11.20;7.10;;;15.00;60.60;;;;;;4990978;28;20026;-61
2020/12/09 09:48:25;;;;;;;11.70;7.05;;;15.00;60.70;;;;;;4990820;28;20432;-61
2020/12/09 09:50:51;;;;;;;10.65;7.43;;;15.00;60.60;;;;;;4991029;28;20074;-61
2020/12/09 09:53:16;;;;;;;11.23;7.50;;;15.00;60.60;;;;;;4990856;28;20026;-61
2020/12/09 09:55:42;;;;;;;11.25;7.20;;;15.00;60.70;;;;;;4991001;28;20030;-61
2020/12/09 09:58:07;;;;;;;10.88;7.30;;;15.00;60.70;;;;;;4989538;28;20038;-61
2020/12/09 10:00:33;;;;;;;10.52;7.07;;;15.00;60.70;;;;;;4989663;28;20029;-61
2020/12/09 10:02:58;;;;;;;10.52;6.93;;;15.00;60.70;;;;;;4990677;28;20111;-61
2020/12/09 10:05:24;;;;;;;11.60;7.63;;;15.00;60.70;;;;;;4989671;28;20557;-60
2020/12/09 10:07:50;;;;;;;10.57;6.90;;;15.00;60.70;;;;;;4991000;28;20443;-61
2020/12/09 10:10:16;;;;;;;10.90;6.80;;;15.00;60.60;;;;;;4991091;28;20109;-60
2020/12/09 10:12:41;;;;;;;11.30;7.40;;;15.00;60.60;;;;;;4990892;28;20039;-61
2020/12/09 10:15:07;;;;;;;10.65;7.15;;;15.00;60.50;;;;;;4990967;28;20061;-61
2020/12/09 10:17:32;;;;;;;10.00;6.97;;;15.00;60.30;;;;;;4990664;28;20387;-61
2020/12/09 10:19:58;;;;;;;10.50;7.03;;;15.00;60.30;;;;;;4990875;28;20042;-61
2020/12/09 10:22:24;;;;;;;10.85;6.85;;;15.00;60.40;;;;;;4993627;28;20499;-62
2020/12/09 10:24:49;;;;;;;10.30;6.88;;;15.00;60.40;;;;;;4994285;28;20062;-61
2020/12/09 10:27:15;;;;;;;10.98;7.00;;;15.00;60.50;;;;;;4994318;28;20395;-61
2020/12/09 10:29:42;;;;;;;11.77;7.95;;;15.00;60.60;;;;;;4993016;28;20101;-61
2020/12/09 10:32:08;;;;;;;11.32;7.65;;;15.00;60.50;;;;;;4992797;28;20112;-61
2020/12/09 10:34:35;;;;;;;10.80;7.38;;;15.00;60.50;;;;;;4994092;28;20033;-61
2020/12/09 10:37:01;;;;;;;13.77;7.30;;;15.00;60.50;;;;;;4993963;28;20022;-61
2020/12/09 10:39:26;;;;;;;12.00;7.88;;;15.00;60.50;;;;;;4992870;28;20032;-61
2020/12/09 10:41:52;;;;;;;10.52;6.93;;;15.00;60.40;;;;;;4994082;28;20447;-61
2020/12/09 10:44:19;;;;;;;11.40;7.40;;;15.00;60.20;;;;;;4993760;28;20022;-61
2020/12/09 10:46:45;;;;;;;10.40;7.22;;;15.00;60.30;;;;;;4993740;28;20023;-61
2020/12/09 10:49:12;;;;;;;10.02;6.95;;;15.00;60.30;;;;;;4993919;28;20073;-61
2020/12/09 10:51:48;;;;;;;11.90;7.50;;;15.00;60.40;;;;;;4992570;28;20114;-61
2020/12/09 10:54:15;;;;;;;10.90;7.25;;;15.00;60.30;;;;;;4993455;28;20035;-61
2020/12/09 10:56:41;;;;;;;11.55;7.65;;;14.90;60.30;;;;;;4992393;28;20031;-61
2020/12/09 10:59:06;;;;;;;11.18;7.15;;;15.00;60.30;;;;;;4993730;28;20022;-61
2020/12/09 11:01:32;;;;;;;10.68;7.30;;;15.00;60.30;;;;;;4993754;28;20392;-61
2020/12/09 11:03:59;;;;;;;11.05;7.28;;;15.00;60.20;;;;;;4993695;28;20023;-61
2020/12/09 11:06:35;;;;;;;10.98;7.25;;;15.00;60.20;;;;;;4993625;28;20234;-61
2020/12/09 11:09:06;;;;;;;11.13;7.40;;;15.00;60.10;;;;;;4993536;28;20417;-61
2020/12/09 11:11:33;;;;;;;10.23;6.68;;;15.00;60.10;;;;;;4993518;28;20022;-61
2020/12/09 11:13:58;;;;;;;10.73;7.50;;;15.10;60.20;;;;;;4991792;28;20026;-61
2020/12/09 11:16:24;;;;;;;10.32;7.18;;;15.10;60.20;;;;;;4993483;28;20483;-61
2020/12/09 11:18:51;;;;;;;11.30;6.80;;;15.00;60.20;;;;;;4992101;28;20065;-61
2020/12/09 11:21:21;;;;;;;11.13;7.32;;;15.10;60.20;;;;;;4993315;28;20491;-61
2020/12/09 11:23:47;;;;;;;11.23;7.28;;;15.10;60.20;;;;;;4991918;28;20396;-61
2020/12/09 11:26:14;;;;;;;10.77;7.10;;;15.10;60.10;;;;;;4993564;28;20061;-60
2020/12/09 11:28:40;;;;;;;11.20;7.00;;;15.10;60.20;;;;;;4993075;28;20033;-61
2020/12/09 11:31:06;;;;;;;10.82;7.10;;;15.10;60.20;;;;;;4991796;28;20018;-61
2020/12/09 11:33:31;;;;;;;10.20;6.97;;;15.10;60.20;;;;;;4991912;28;20109;-61
2020/12/09 11:35:58;;;;;;;11.18;7.50;;;15.10;60.00;;;;;;4993079;28;20053;-61
2020/12/09 11:38:24;;;;;;;10.85;7.55;;;15.10;60.10;;;;;;4992843;28;20026;-60
2020/12/09 11:40:50;;;;;;;11.35;7.18;;;15.10;60.10;;;;;;4992865;28;20391;-61
2020/12/09 11:43:15;;;;;;;10.98;7.07;;;15.10;60.10;;;;;;4992757;28;20476;-61
2020/12/09 11:45:40;;;;;;;12.93;7.43;;;15.10;60.10;;;;;;4991556;28;20550;-60
2020/12/09 11:48:06;;;;;;;10.45;7.00;;;15.10;60.10;;;;;;4992696;28;20022;-61
2020/12/09 11:50:31;;;;;;;11.18;7.43;;;15.10;60.10;;;;;;4992674;28;20559;-61
2020/12/09 11:52:57;;;;;;;10.85;6.93;;;15.00;60.00;;;;;;4992428;28;20030;-61
2020/12/09 11:55:22;;;;;;;11.15;7.63;;;15.00;60.00;;;;;;4992558;28;20057;-61
2020/12/09 11:57:48;;;;;;;11.55;7.35;;;15.00;60.00;;;;;;4992454;28;20050;-61
2020/12/09 12:00:13;;;;;;;10.73;7.40;;;15.00;60.00;;;;;;4992434;28;20022;-61
2020/12/09 12:02:39;;;;;;;10.68;6.97;;;15.00;60.00;;;;;;4992244;28;20298;-60
2020/12/09 12:05:05;;;;;;;10.52;7.22;;;15.00;60.00;;;;;;4992422;28;20030;-61
2020/12/09 12:07:30;;;;;;;12.68;7.60;;;15.00;59.90;;;;;;4992354;28;20018;-61
2020/12/09 12:09:56;;;;;;;11.80;7.30;;;15.00;59.90;;;;;;4992335;28;20034;-61
2020/12/09 12:12:22;;;;;;;11.10;7.07;;;15.00;59.90;;;;;;4991018;28;20038;-61
2020/12/09 12:14:47;;;;;;;11.25;7.32;;;15.00;59.90;;;;;;4990690;28;20279;-61
2020/12/09 12:17:13;;;;;;;11.13;7.65;;;15.00;60.00;;;;;;4992179;28;20030;-61
2020/12/09 12:19:39;;;;;;;11.45;7.32;;;15.00;59.90;;;;;;4990947;28;20399;-61
2020/12/09 12:22:04;;;;;;;11.60;7.38;;;15.00;59.90;;;;;;4992157;28;20391;-61
2020/12/09 12:24:30;;;;;;;10.70;7.40;;;15.00;59.90;;;;;;4991783;28;20097;-61
2020/12/09 12:26:56;;;;;;;11.05;6.93;;;15.00;59.80;;;;;;4990671;28;20030;-61
2020/12/09 12:29:21;;;;;;;11.38;7.30;;;14.90;59.80;;;;;;4990727;28;20065;-61
2020/12/09 12:31:47;;;;;;;10.32;7.10;;;15.00;59.80;;;;;;4991942;28;20034;-61
2020/12/09 12:34:13;;;;;;;10.98;7.45;;;15.00;59.80;;;;;;4991554;28;20025;-61
2020/12/09 12:36:39;;;;;;;10.93;7.05;;;15.00;59.80;;;;;;4991749;28;20567;-61
2020/12/09 12:39:05;;;;;;;11.60;7.68;;;14.90;59.80;;;;;;4991848;28;20041;-61
2020/12/09 12:41:30;;;;;;;11.60;7.20;;;14.90;59.80;;;;;;4991826;28;20031;-61
2020/12/09 12:43:56;;;;;;;10.48;7.07;;;14.90;59.80;;;;;;4991514;28;20085;-61